sensor_id;sensor_type;location;lat;lon;timestamp;pressure;altitude;pressure_sealevel;temperature;humidity
43420;BME280;29017;51.514;-0.178;2023-04-25T00:00:16;101075.75;;;8.77;73.64
43420;BME280;29017;51.514;-0.178;2023-04-25T00:02:44;101081.00;;;8.77;74.17
43420;BME280;29017;51.514;-0.178;2023-04-25T00:05:13;101078.78;;;8.73;73.82
43420;BME280;29017;51.514;-0.178;2023-04-25T00:07:42;101080.16;;;8.67;72.55
43420;BME280;29017;51.514;-0.178;2023-04-25T00:10:09;101068.09;;;8.65;73.57
43420;BME280;29017;51.514;-0.178;2023-04-25T00:12:38;101073.34;;;8.65;74.92
43420;BME280;29017;51.514;-0.178;2023-04-25T00:15:06;101075.44;;;8.61;75.32
43420;BME280;29017;51.514;-0.178;2023-04-25T00:17:33;101064.50;;;8.56;73.38
43420;BME280;29017;51.514;-0.178;2023-04-25T00:20:01;101069.31;;;8.51;73.92
43420;BME280;29017;51.514;-0.178;2023-04-25T00:22:32;101073.19;;;8.47;73.63
43420;BME280;29017;51.514;-0.178;2023-04-25T00:25:01;101074.25;;;8.44;73.88
43420;BME280;29017;51.514;-0.178;2023-04-25T00:27:28;101074.00;;;8.38;72.77
43420;BME280;29017;51.514;-0.178;2023-04-25T00:29:55;101068.88;;;8.36;73.57
43420;BME280;29017;51.514;-0.178;2023-04-25T00:32:22;101078.66;;;8.34;74.76
43420;BME280;29017;51.514;-0.178;2023-04-25T00:34:49;101084.38;;;8.28;72.67
43420;BME280;29017;51.514;-0.178;2023-04-25T00:37:17;101087.16;;;8.27;73.40
43420;BME280;29017;51.514;-0.178;2023-04-25T00:39:45;101087.41;;;8.24;73.93
43420;BME280;29017;51.514;-0.178;2023-04-25T00:42:12;101090.41;;;8.19;74.15
43420;BME280;29017;51.514;-0.178;2023-04-25T00:44:39;101085.56;;;8.14;73.98
43420;BME280;29017;51.514;-0.178;2023-04-25T00:47:06;101089.41;;;8.10;72.69
43420;BME280;29017;51.514;-0.178;2023-04-25T00:49:33;101097.66;;;8.06;73.21
43420;BME280;29017;51.514;-0.178;2023-04-25T00:52:00;101103.16;;;8.03;73.09
43420;BME280;29017;51.514;-0.178;2023-04-25T00:54:39;101099.84;;;8.01;73.46
43420;BME280;29017;51.514;-0.178;2023-04-25T00:57:06;101094.72;;;7.99;72.39
43420;BME280;29017;51.514;-0.178;2023-04-25T00:59:33;101099.13;;;7.99;72.47
43420;BME280;29017;51.514;-0.178;2023-04-25T01:02:00;101104.88;;;7.93;72.75
43420;BME280;29017;51.514;-0.178;2023-04-25T01:04:27;101097.56;;;7.87;73.80
43420;BME280;29017;51.514;-0.178;2023-04-25T01:06:55;101102.91;;;7.85;75.06
43420;BME280;29017;51.514;-0.178;2023-04-25T01:09:22;101097.63;;;7.76;73.55
43420;BME280;29017;51.514;-0.178;2023-04-25T01:11:50;101089.66;;;7.77;73.75
43420;BME280;29017;51.514;-0.178;2023-04-25T01:14:17;101094.75;;;7.79;72.92
43420;BME280;29017;51.514;-0.178;2023-04-25T01:16:44;101099.28;;;7.77;72.97
43420;BME280;29017;51.514;-0.178;2023-04-25T01:19:11;101093.22;;;7.76;73.03
43420;BME280;29017;51.514;-0.178;2023-04-25T01:21:38;101096.22;;;7.71;72.97
43420;BME280;29017;51.514;-0.178;2023-04-25T01:24:06;101100.03;;;7.67;73.33
43420;BME280;29017;51.514;-0.178;2023-04-25T01:26:33;101099.19;;;7.67;75.11
43420;BME280;29017;51.514;-0.178;2023-04-25T01:29:03;101102.09;;;7.64;75.67
43420;BME280;29017;51.514;-0.178;2023-04-25T01:31:30;101110.22;;;7.61;73.85
43420;BME280;29017;51.514;-0.178;2023-04-25T01:33:58;101094.63;;;7.59;73.39
43420;BME280;29017;51.514;-0.178;2023-04-25T01:36:25;101102.59;;;7.58;73.21
43420;BME280;29017;51.514;-0.178;2023-04-25T01:38:53;101103.53;;;7.57;73.71
43420;BME280;29017;51.514;-0.178;2023-04-25T01:41:21;101107.25;;;7.54;73.41
43420;BME280;29017;51.514;-0.178;2023-04-25T01:43:49;101115.50;;;7.50;74.14
43420;BME280;29017;51.514;-0.178;2023-04-25T01:46:17;101114.78;;;7.48;73.28
43420;BME280;29017;51.514;-0.178;2023-04-25T01:48:44;101113.25;;;7.45;74.44
43420;BME280;29017;51.514;-0.178;2023-04-25T01:51:11;101116.81;;;7.44;74.67
43420;BME280;29017;51.514;-0.178;2023-04-25T01:53:38;101114.09;;;7.46;74.26
43420;BME280;29017;51.514;-0.178;2023-04-25T01:56:05;101120.16;;;7.46;75.38
43420;BME280;29017;51.514;-0.178;2023-04-25T01:58:32;101126.91;;;7.49;74.70
43420;BME280;29017;51.514;-0.178;2023-04-25T02:00:59;101124.19;;;7.50;74.48
43420;BME280;29017;51.514;-0.178;2023-04-25T02:03:27;101118.78;;;7.52;75.09
43420;BME280;29017;51.514;-0.178;2023-04-25T02:05:54;101121.56;;;7.50;74.02
43420;BME280;29017;51.514;-0.178;2023-04-25T02:08:21;101114.78;;;7.48;74.72
43420;BME280;29017;51.514;-0.178;2023-04-25T02:10:47;101121.09;;;7.45;74.56
43420;BME280;29017;51.514;-0.178;2023-04-25T02:13:14;101111.31;;;7.47;74.14
43420;BME280;29017;51.514;-0.178;2023-04-25T02:15:41;101115.88;;;7.45;74.59
43420;BME280;29017;51.514;-0.178;2023-04-25T02:18:08;101124.78;;;7.43;74.45
43420;BME280;29017;51.514;-0.178;2023-04-25T02:20:37;101124.34;;;7.38;73.32
43420;BME280;29017;51.514;-0.178;2023-04-25T02:23:03;101122.94;;;7.34;74.54
43420;BME280;29017;51.514;-0.178;2023-04-25T02:25:30;101126.19;;;7.26;74.33
43420;BME280;29017;51.514;-0.178;2023-04-25T02:27:57;101122.97;;;7.22;75.38
43420;BME280;29017;51.514;-0.178;2023-04-25T02:30:24;101125.00;;;7.19;75.16
43420;BME280;29017;51.514;-0.178;2023-04-25T02:32:51;101127.03;;;7.15;75.19
43420;BME280;29017;51.514;-0.178;2023-04-25T02:35:18;101128.94;;;7.13;75.92
43420;BME280;29017;51.514;-0.178;2023-04-25T02:37:45;101136.06;;;7.11;76.14
43420;BME280;29017;51.514;-0.178;2023-04-25T02:40:12;101128.38;;;7.10;74.73
43420;BME280;29017;51.514;-0.178;2023-04-25T02:42:39;101124.09;;;7.09;74.84
43420;BME280;29017;51.514;-0.178;2023-04-25T02:45:06;101130.25;;;7.08;74.57
43420;BME280;29017;51.514;-0.178;2023-04-25T02:47:33;101132.03;;;7.07;75.16
43420;BME280;29017;51.514;-0.178;2023-04-25T02:50:00;101136.31;;;7.08;75.53
43420;BME280;29017;51.514;-0.178;2023-04-25T02:52:26;101136.44;;;7.07;74.56
43420;BME280;29017;51.514;-0.178;2023-04-25T02:54:53;101134.06;;;7.04;75.08
43420;BME280;29017;51.514;-0.178;2023-04-25T02:57:20;101134.19;;;7.02;74.90
43420;BME280;29017;51.514;-0.178;2023-04-25T02:59:47;101135.84;;;7.03;74.23
43420;BME280;29017;51.514;-0.178;2023-04-25T03:02:14;101136.13;;;7.00;74.25
43420;BME280;29017;51.514;-0.178;2023-04-25T03:04:41;101145.84;;;6.98;74.49
43420;BME280;29017;51.514;-0.178;2023-04-25T03:07:08;101152.75;;;6.99;74.17
43420;BME280;29017;51.514;-0.178;2023-04-25T03:09:35;101140.63;;;6.98;74.08
43420;BME280;29017;51.514;-0.178;2023-04-25T03:12:02;101140.75;;;6.97;74.40
43420;BME280;29017;51.514;-0.178;2023-04-25T03:14:29;101133.88;;;6.96;74.15
43420;BME280;29017;51.514;-0.178;2023-04-25T03:16:56;101138.97;;;6.97;74.29
43420;BME280;29017;51.514;-0.178;2023-04-25T03:19:23;101144.19;;;6.97;73.70
43420;BME280;29017;51.514;-0.178;2023-04-25T03:21:50;101147.63;;;6.98;74.04
43420;BME280;29017;51.514;-0.178;2023-04-25T03:24:17;101152.66;;;6.90;73.41
43420;BME280;29017;51.514;-0.178;2023-04-25T03:26:43;101159.56;;;6.91;73.97
43420;BME280;29017;51.514;-0.178;2023-04-25T03:29:10;101155.28;;;6.90;74.31
43420;BME280;29017;51.514;-0.178;2023-04-25T03:31:38;101157.53;;;6.83;73.35
43420;BME280;29017;51.514;-0.178;2023-04-25T03:34:05;101158.84;;;6.77;74.33
43420;BME280;29017;51.514;-0.178;2023-04-25T03:36:31;101162.66;;;6.73;75.99
43420;BME280;29017;51.514;-0.178;2023-04-25T03:38:59;101167.88;;;6.73;75.73
43420;BME280;29017;51.514;-0.178;2023-04-25T03:41:26;101167.03;;;6.73;75.17
43420;BME280;29017;51.514;-0.178;2023-04-25T03:43:53;101169.91;;;6.70;74.85
43420;BME280;29017;51.514;-0.178;2023-04-25T03:46:19;101170.03;;;6.68;75.20
43420;BME280;29017;51.514;-0.178;2023-04-25T03:48:46;101174.66;;;6.65;75.45
43420;BME280;29017;51.514;-0.178;2023-04-25T03:51:13;101179.28;;;6.61;75.43
43420;BME280;29017;51.514;-0.178;2023-04-25T03:53:40;101177.38;;;6.52;75.33
43420;BME280;29017;51.514;-0.178;2023-04-25T03:56:07;101179.31;;;6.50;75.66
43420;BME280;29017;51.514;-0.178;2023-04-25T03:58:34;101176.06;;;6.47;76.86
43420;BME280;29017;51.514;-0.178;2023-04-25T04:01:00;101176.91;;;6.47;76.28
43420;BME280;29017;51.514;-0.178;2023-04-25T04:03:29;101172.50;;;6.48;76.24
43420;BME280;29017;51.514;-0.178;2023-04-25T04:05:56;101178.56;;;6.48;75.70
43420;BME280;29017;51.514;-0.178;2023-04-25T04:08:23;101187.25;;;6.49;75.94
43420;BME280;29017;51.514;-0.178;2023-04-25T04:10:53;101188.09;;;6.49;75.63
43420;BME280;29017;51.514;-0.178;2023-04-25T04:13:19;101194.25;;;6.48;75.15
43420;BME280;29017;51.514;-0.178;2023-04-25T04:15:46;101198.53;;;6.49;75.80
43420;BME280;29017;51.514;-0.178;2023-04-25T04:18:13;101189.03;;;6.48;76.01
43420;BME280;29017;51.514;-0.178;2023-04-25T04:20:40;101192.38;;;6.50;75.69
43420;BME280;29017;51.514;-0.178;2023-04-25T04:23:07;101202.94;;;6.49;75.44
43420;BME280;29017;51.514;-0.178;2023-04-25T04:25:34;101197.09;;;6.45;75.43
43420;BME280;29017;51.514;-0.178;2023-04-25T04:28:00;101208.63;;;6.42;75.69
43420;BME280;29017;51.514;-0.178;2023-04-25T04:30:27;101209.81;;;6.38;75.75
43420;BME280;29017;51.514;-0.178;2023-04-25T04:32:57;101214.19;;;6.38;76.16
43420;BME280;29017;51.514;-0.178;2023-04-25T04:35:24;101217.84;;;6.35;75.90
43420;BME280;29017;51.514;-0.178;2023-04-25T04:37:51;101221.09;;;6.39;77.41
43420;BME280;29017;51.514;-0.178;2023-04-25T04:40:18;101232.97;;;6.43;76.75
43420;BME280;29017;51.514;-0.178;2023-04-25T04:42:45;101232.13;;;6.42;75.84
43420;BME280;29017;51.514;-0.178;2023-04-25T04:45:12;101239.16;;;6.42;76.59
43420;BME280;29017;51.514;-0.178;2023-04-25T04:47:39;101241.16;;;6.38;76.43
43420;BME280;29017;51.514;-0.178;2023-04-25T04:50:07;101242.09;;;6.37;76.77
43420;BME280;29017;51.514;-0.178;2023-04-25T04:52:36;101243.78;;;6.38;76.79
43420;BME280;29017;51.514;-0.178;2023-04-25T04:55:03;101242.34;;;6.34;75.93
43420;BME280;29017;51.514;-0.178;2023-04-25T04:57:30;101240.78;;;6.32;76.31
43420;BME280;29017;51.514;-0.178;2023-04-25T04:59:59;101242.47;;;6.33;76.85
43420;BME280;29017;51.514;-0.178;2023-04-25T05:02:27;101245.06;;;6.33;77.11
43420;BME280;29017;51.514;-0.178;2023-04-25T05:04:55;101249.09;;;6.37;77.01
43420;BME280;29017;51.514;-0.178;2023-04-25T05:07:23;101240.31;;;6.38;76.94
43420;BME280;29017;51.514;-0.178;2023-04-25T05:09:49;101242.22;;;6.36;76.14
43420;BME280;29017;51.514;-0.178;2023-04-25T05:12:16;101244.00;;;6.35;75.88
43420;BME280;29017;51.514;-0.178;2023-04-25T05:14:43;101258.63;;;6.38;75.87
43420;BME280;29017;51.514;-0.178;2023-04-25T05:17:10;101270.84;;;6.37;75.38
43420;BME280;29017;51.514;-0.178;2023-04-25T05:19:37;101265.63;;;6.37;75.95
43420;BME280;29017;51.514;-0.178;2023-04-25T05:22:04;101280.72;;;6.34;75.50
43420;BME280;29017;51.514;-0.178;2023-04-25T05:24:31;101289.50;;;6.33;75.52
43420;BME280;29017;51.514;-0.178;2023-04-25T05:26:58;101285.81;;;6.35;75.87
43420;BME280;29017;51.514;-0.178;2023-04-25T05:29:25;101282.50;;;6.33;74.92
43420;BME280;29017;51.514;-0.178;2023-04-25T05:31:52;101293.63;;;6.35;75.15
43420;BME280;29017;51.514;-0.178;2023-04-25T05:34:19;101297.09;;;6.36;75.01
43420;BME280;29017;51.514;-0.178;2023-04-25T05:36:46;101306.50;;;6.38;75.13
43420;BME280;29017;51.514;-0.178;2023-04-25T05:39:15;101309.09;;;6.38;74.70
43420;BME280;29017;51.514;-0.178;2023-04-25T05:41:43;101316.72;;;6.41;75.45
43420;BME280;29017;51.514;-0.178;2023-04-25T05:44:10;101319.41;;;6.40;75.77
43420;BME280;29017;51.514;-0.178;2023-04-25T05:46:37;101322.78;;;6.42;75.31
43420;BME280;29017;51.514;-0.178;2023-04-25T05:49:04;101311.97;;;6.47;75.38
43420;BME280;29017;51.514;-0.178;2023-04-25T05:51:30;101314.97;;;6.53;75.91
43420;BME280;29017;51.514;-0.178;2023-04-25T05:53:58;101310.13;;;6.60;75.65
43420;BME280;29017;51.514;-0.178;2023-04-25T05:56:25;101318.47;;;6.65;75.65
43420;BME280;29017;51.514;-0.178;2023-04-25T05:58:52;101320.00;;;6.67;74.19
43420;BME280;29017;51.514;-0.178;2023-04-25T06:01:19;101327.47;;;6.72;73.97
43420;BME280;29017;51.514;-0.178;2023-04-25T06:03:46;101332.59;;;6.73;74.19
43420;BME280;29017;51.514;-0.178;2023-04-25T06:06:14;101329.06;;;6.74;73.43
43420;BME280;29017;51.514;-0.178;2023-04-25T06:08:41;101332.00;;;6.81;73.69
43420;BME280;29017;51.514;-0.178;2023-04-25T06:11:08;101325.13;;;6.80;72.94
43420;BME280;29017;51.514;-0.178;2023-04-25T06:13:35;101324.66;;;6.75;72.84
43420;BME280;29017;51.514;-0.178;2023-04-25T06:16:02;101334.88;;;6.78;72.48
43420;BME280;29017;51.514;-0.178;2023-04-25T06:18:29;101325.25;;;6.78;72.15
43420;BME280;29017;51.514;-0.178;2023-04-25T06:20:56;101332.75;;;6.83;72.67
43420;BME280;29017;51.514;-0.178;2023-04-25T06:23:23;101342.38;;;6.82;72.56
43420;BME280;29017;51.514;-0.178;2023-04-25T06:25:50;101339.84;;;6.81;72.27
43420;BME280;29017;51.514;-0.178;2023-04-25T06:28:16;101347.38;;;6.85;73.29
43420;BME280;29017;51.514;-0.178;2023-04-25T06:30:43;101340.97;;;6.90;72.04
43420;BME280;29017;51.514;-0.178;2023-04-25T06:33:10;101342.97;;;6.97;72.13
43420;BME280;29017;51.514;-0.178;2023-04-25T06:35:37;101338.97;;;7.38;72.58
43420;BME280;29017;51.514;-0.178;2023-04-25T06:38:04;101357.00;;;7.85;69.33
43420;BME280;29017;51.514;-0.178;2023-04-25T06:40:32;101351.13;;;8.04;68.28
43420;BME280;29017;51.514;-0.178;2023-04-25T06:42:59;101356.59;;;8.12;67.92
43420;BME280;29017;51.514;-0.178;2023-04-25T06:45:26;101352.22;;;8.33;67.04
43420;BME280;29017;51.514;-0.178;2023-04-25T06:47:53;101362.00;;;8.42;65.58
43420;BME280;29017;51.514;-0.178;2023-04-25T06:50:20;101351.66;;;8.62;65.12
43420;BME280;29017;51.514;-0.178;2023-04-25T06:52:47;101357.69;;;8.73;65.43
43420;BME280;29017;51.514;-0.178;2023-04-25T06:55:14;101363.38;;;8.78;64.81
43420;BME280;29017;51.514;-0.178;2023-04-25T06:57:41;101371.03;;;8.91;64.17
43420;BME280;29017;51.514;-0.178;2023-04-25T07:00:09;101366.78;;;9.20;63.20
43420;BME280;29017;51.514;-0.178;2023-04-25T07:02:37;101359.09;;;9.68;62.84
43420;BME280;29017;51.514;-0.178;2023-04-25T07:05:05;101363.59;;;9.97;59.63
43420;BME280;29017;51.514;-0.178;2023-04-25T07:07:35;101369.72;;;10.16;59.73
43420;BME280;29017;51.514;-0.178;2023-04-25T07:10:02;101368.78;;;10.37;58.79
43420;BME280;29017;51.514;-0.178;2023-04-25T07:12:31;101364.75;;;10.42;58.61
43420;BME280;29017;51.514;-0.178;2023-04-25T07:14:58;101366.44;;;10.43;59.48
43420;BME280;29017;51.514;-0.178;2023-04-25T07:17:25;101376.94;;;10.53;58.40
43420;BME280;29017;51.514;-0.178;2023-04-25T07:19:52;101371.28;;;10.57;57.58
43420;BME280;29017;51.514;-0.178;2023-04-25T07:22:27;101377.13;;;10.51;57.98
43420;BME280;29017;51.514;-0.178;2023-04-25T07:24:54;101384.31;;;10.49;58.39
43420;BME280;29017;51.514;-0.178;2023-04-25T07:27:21;101382.09;;;10.45;58.31
43420;BME280;29017;51.514;-0.178;2023-04-25T07:29:48;101395.50;;;10.32;58.54
43420;BME280;29017;51.514;-0.178;2023-04-25T07:32:15;101396.97;;;10.15;59.56
43420;BME280;29017;51.514;-0.178;2023-04-25T07:34:42;101402.06;;;9.98;59.69
43420;BME280;29017;51.514;-0.178;2023-04-25T07:37:10;101400.06;;;9.80;60.36
43420;BME280;29017;51.514;-0.178;2023-04-25T07:39:37;101404.63;;;9.78;60.41
43420;BME280;29017;51.514;-0.178;2023-04-25T07:42:04;101394.94;;;10.28;58.23
43420;BME280;29017;51.514;-0.178;2023-04-25T07:44:34;101412.22;;;11.08;57.79
43420;BME280;29017;51.514;-0.178;2023-04-25T07:47:05;101409.22;;;11.86;55.36
43420;BME280;29017;51.514;-0.178;2023-04-25T07:49:34;101408.06;;;12.16;56.85
43420;BME280;29017;51.514;-0.178;2023-04-25T07:52:02;101418.56;;;12.26;53.52
43420;BME280;29017;51.514;-0.178;2023-04-25T07:54:30;101415.41;;;12.22;52.58
43420;BME280;29017;51.514;-0.178;2023-04-25T07:57:00;101421.34;;;12.24;52.39
43420;BME280;29017;51.514;-0.178;2023-04-25T07:59:27;101427.84;;;12.48;51.93
43420;BME280;29017;51.514;-0.178;2023-04-25T08:01:55;101429.97;;;12.62;51.13
43420;BME280;29017;51.514;-0.178;2023-04-25T08:04:24;101433.28;;;12.46;51.36
43420;BME280;29017;51.514;-0.178;2023-04-25T08:06:53;101454.06;;;12.14;51.40
43420;BME280;29017;51.514;-0.178;2023-04-25T08:09:21;101441.50;;;11.98;51.95
43420;BME280;29017;51.514;-0.178;2023-04-25T08:11:53;101446.13;;;11.86;51.21
43420;BME280;29017;51.514;-0.178;2023-04-25T08:14:23;101441.63;;;11.96;51.38
43420;BME280;29017;51.514;-0.178;2023-04-25T08:16:50;101438.66;;;11.82;51.03
43420;BME280;29017;51.514;-0.178;2023-04-25T08:19:20;101442.53;;;11.87;51.49
43420;BME280;29017;51.514;-0.178;2023-04-25T08:21:47;101442.47;;;11.97;51.77
43420;BME280;29017;51.514;-0.178;2023-04-25T08:24:14;101444.72;;;11.92;51.50
43420;BME280;29017;51.514;-0.178;2023-04-25T08:26:41;101437.72;;;11.64;52.32
43420;BME280;29017;51.514;-0.178;2023-04-25T08:29:09;101446.56;;;11.35;53.65
43420;BME280;29017;51.514;-0.178;2023-04-25T08:31:37;101448.00;;;10.91;54.12
43420;BME280;29017;51.514;-0.178;2023-04-25T08:34:05;101458.41;;;10.73;54.90
43420;BME280;29017;51.514;-0.178;2023-04-25T08:36:32;101453.53;;;10.59;55.83
43420;BME280;29017;51.514;-0.178;2023-04-25T08:39:05;101446.06;;;10.55;55.62
43420;BME280;29017;51.514;-0.178;2023-04-25T08:41:32;101450.19;;;10.38;56.20
43420;BME280;29017;51.514;-0.178;2023-04-25T08:43:59;101441.84;;;10.23;56.27
43420;BME280;29017;51.514;-0.178;2023-04-25T08:46:27;101439.94;;;10.25;57.52
43420;BME280;29017;51.514;-0.178;2023-04-25T08:48:56;101444.63;;;10.22;56.14
43420;BME280;29017;51.514;-0.178;2023-04-25T08:51:26;101442.81;;;10.22;56.53
43420;BME280;29017;51.514;-0.178;2023-04-25T08:53:54;101442.56;;;10.25;57.88
43420;BME280;29017;51.514;-0.178;2023-04-25T08:56:27;101442.84;;;10.32;57.30
43420;BME280;29017;51.514;-0.178;2023-04-25T08:58:55;101443.97;;;10.39;57.46
43420;BME280;29017;51.514;-0.178;2023-04-25T09:01:22;101437.22;;;10.46;58.13
43420;BME280;29017;51.514;-0.178;2023-04-25T09:03:49;101439.69;;;10.57;57.12
43420;BME280;29017;51.514;-0.178;2023-04-25T09:06:18;101444.81;;;10.68;57.12
43420;BME280;29017;51.514;-0.178;2023-04-25T09:08:46;101442.88;;;10.70;53.82
43420;BME280;29017;51.514;-0.178;2023-04-25T09:11:13;101446.78;;;10.66;54.25
43420;BME280;29017;51.514;-0.178;2023-04-25T09:13:41;101447.75;;;10.65;54.17
43420;BME280;29017;51.514;-0.178;2023-04-25T09:16:08;101448.56;;;10.66;52.19
43420;BME280;29017;51.514;-0.178;2023-04-25T09:18:35;101442.47;;;10.65;53.45
43420;BME280;29017;51.514;-0.178;2023-04-25T09:21:07;101444.94;;;10.67;54.36
43420;BME280;29017;51.514;-0.178;2023-04-25T09:23:40;101447.19;;;10.71;52.70
43420;BME280;29017;51.514;-0.178;2023-04-25T09:26:08;101447.19;;;10.81;51.75
43420;BME280;29017;51.514;-0.178;2023-04-25T09:28:36;101445.22;;;10.83;51.38
43420;BME280;29017;51.514;-0.178;2023-04-25T09:31:04;101445.94;;;10.76;52.62
43420;BME280;29017;51.514;-0.178;2023-04-25T09:33:33;101445.22;;;10.83;53.33
43420;BME280;29017;51.514;-0.178;2023-04-25T09:36:03;101456.19;;;10.69;52.24
43420;BME280;29017;51.514;-0.178;2023-04-25T09:38:31;101449.00;;;10.71;52.42
43420;BME280;29017;51.514;-0.178;2023-04-25T09:40:59;101451.03;;;10.58;50.45
43420;BME280;29017;51.514;-0.178;2023-04-25T09:43:32;101451.84;;;10.29;51.16
43420;BME280;29017;51.514;-0.178;2023-04-25T09:46:00;101446.06;;;10.45;53.14
43420;BME280;29017;51.514;-0.178;2023-04-25T09:48:28;101451.03;;;10.39;51.30
43420;BME280;29017;51.514;-0.178;2023-04-25T09:51:04;101437.88;;;10.39;51.96
43420;BME280;29017;51.514;-0.178;2023-04-25T09:53:33;101442.44;;;10.37;52.38
43420;BME280;29017;51.514;-0.178;2023-04-25T09:56:00;101442.44;;;10.37;53.08
43420;BME280;29017;51.514;-0.178;2023-04-25T09:58:30;101447.72;;;10.46;53.19
43420;BME280;29017;51.514;-0.178;2023-04-25T10:01:00;101438.03;;;10.56;53.00
43420;BME280;29017;51.514;-0.178;2023-04-25T10:03:29;101442.06;;;10.60;52.43
43420;BME280;29017;51.514;-0.178;2023-04-25T10:05:59;101449.41;;;10.66;51.26
43420;BME280;29017;51.514;-0.178;2023-04-25T10:08:28;101443.31;;;10.76;50.10
43420;BME280;29017;51.514;-0.178;2023-04-25T10:10:59;101428.75;;;10.91;50.34
43420;BME280;29017;51.514;-0.178;2023-04-25T10:13:28;101435.66;;;11.01;50.20
43420;BME280;29017;51.514;-0.178;2023-04-25T10:15:56;101431.03;;;11.23;51.25
43420;BME280;29017;51.514;-0.178;2023-04-25T10:18:25;101440.16;;;11.38;50.28
43420;BME280;29017;51.514;-0.178;2023-04-25T10:20:54;101435.94;;;11.54;50.51
43420;BME280;29017;51.514;-0.178;2023-04-25T10:23:22;101446.47;;;11.64;48.24
43420;BME280;29017;51.514;-0.178;2023-04-25T10:25:50;101448.13;;;11.75;47.55
43420;BME280;29017;51.514;-0.178;2023-04-25T10:28:18;101450.03;;;11.82;48.94
43420;BME280;29017;51.514;-0.178;2023-04-25T10:38:37;101453.06;;;11.41;44.64
43420;BME280;29017;51.514;-0.178;2023-04-25T10:41:06;101444.34;;;11.31;44.74
43420;BME280;29017;51.514;-0.178;2023-04-25T10:43:37;101447.13;;;11.29;45.67
43420;BME280;29017;51.514;-0.178;2023-04-25T10:51:18;101446.03;;;11.22;41.59
43420;BME280;29017;51.514;-0.178;2023-04-25T10:53:46;101444.91;;;11.25;41.88
43420;BME280;29017;51.514;-0.178;2023-04-25T10:56:18;101442.97;;;11.27;43.65
43420;BME280;29017;51.514;-0.178;2023-04-25T10:58:46;101448.78;;;11.30;43.46
43420;BME280;29017;51.514;-0.178;2023-04-25T11:01:20;101451.66;;;11.46;44.26
43420;BME280;29017;51.514;-0.178;2023-04-25T11:03:56;101446.19;;;11.67;43.37
43420;BME280;29017;51.514;-0.178;2023-04-25T11:09:12;101448.97;;;11.66;44.56
43420;BME280;29017;51.514;-0.178;2023-04-25T11:11:40;101452.28;;;11.58;43.62
43420;BME280;29017;51.514;-0.178;2023-04-25T11:14:07;101440.84;;;11.40;44.23
43420;BME280;29017;51.514;-0.178;2023-04-25T11:16:34;101440.84;;;11.40;45.07
43420;BME280;29017;51.514;-0.178;2023-04-25T11:19:03;101446.53;;;11.45;45.95
43420;BME280;29017;51.514;-0.178;2023-04-25T11:21:31;101439.56;;;11.53;44.73
43420;BME280;29017;51.514;-0.178;2023-04-25T11:23:58;101444.66;;;11.65;45.40
43420;BME280;29017;51.514;-0.178;2023-04-25T11:26:27;101447.53;;;11.81;44.03
43420;BME280;29017;51.514;-0.178;2023-04-25T11:28:58;101446.56;;;11.82;43.64
43420;BME280;29017;51.514;-0.178;2023-04-25T11:31:29;101443.69;;;11.75;43.26
43420;BME280;29017;51.514;-0.178;2023-04-25T11:33:57;101434.50;;;11.79;43.27
43420;BME280;29017;51.514;-0.178;2023-04-25T11:36:24;101444.22;;;11.79;41.86
43420;BME280;29017;51.514;-0.178;2023-04-25T11:38:53;101439.94;;;11.78;42.59
43420;BME280;29017;51.514;-0.178;2023-04-25T11:41:20;101439.88;;;11.87;42.39
43420;BME280;29017;51.514;-0.178;2023-04-25T11:43:48;101448.13;;;12.02;42.83
43420;BME280;29017;51.514;-0.178;2023-04-25T11:46:18;101440.41;;;12.18;43.60
43420;BME280;29017;51.514;-0.178;2023-04-25T11:48:46;101447.69;;;12.34;42.53
43420;BME280;29017;51.514;-0.178;2023-04-25T11:51:15;101439.16;;;12.40;42.23
43420;BME280;29017;51.514;-0.178;2023-04-25T11:53:44;101447.63;;;12.43;42.31
43420;BME280;29017;51.514;-0.178;2023-04-25T11:56:11;101440.53;;;12.44;41.09
43420;BME280;29017;51.514;-0.178;2023-04-25T12:06:40;101454.44;;;12.19;41.53
43420;BME280;29017;51.514;-0.178;2023-04-25T12:09:09;101444.56;;;12.21;40.75
43420;BME280;29017;51.514;-0.178;2023-04-25T12:11:41;101451.34;;;12.23;41.64
43420;BME280;29017;51.514;-0.178;2023-04-25T12:14:08;101446.75;;;12.25;41.36
43420;BME280;29017;51.514;-0.178;2023-04-25T12:16:43;101452.72;;;12.00;40.97
43420;BME280;29017;51.514;-0.178;2023-04-25T12:19:15;101453.59;;;11.91;41.76
43420;BME280;29017;51.514;-0.178;2023-04-25T12:21:43;101448.81;;;12.04;43.48
43420;BME280;29017;51.514;-0.178;2023-04-25T12:24:24;101457.16;;;12.27;43.41
43420;BME280;29017;51.514;-0.178;2023-04-25T12:26:53;101456.13;;;12.37;42.35
43420;BME280;29017;51.514;-0.178;2023-04-25T12:29:22;101467.66;;;12.36;43.04
43420;BME280;29017;51.514;-0.178;2023-04-25T12:31:53;101460.31;;;12.30;40.58
43420;BME280;29017;51.514;-0.178;2023-04-25T12:34:21;101460.88;;;12.34;40.96
43420;BME280;29017;51.514;-0.178;2023-04-25T12:36:48;101448.09;;;12.29;41.05
43420;BME280;29017;51.514;-0.178;2023-04-25T12:41:44;101458.63;;;12.39;40.09
43420;BME280;29017;51.514;-0.178;2023-04-25T12:44:12;101458.44;;;12.40;39.55
43420;BME280;29017;51.514;-0.178;2023-04-25T12:46:41;101462.06;;;12.39;40.49
43420;BME280;29017;51.514;-0.178;2023-04-25T12:49:08;101453.03;;;12.42;39.67
43420;BME280;29017;51.514;-0.178;2023-04-25T12:51:44;101461.84;;;12.51;40.49
43420;BME280;29017;51.514;-0.178;2023-04-25T12:54:12;101466.97;;;12.34;40.06
43420;BME280;29017;51.514;-0.178;2023-04-25T12:56:39;101462.00;;;12.31;40.60
43420;BME280;29017;51.514;-0.178;2023-04-25T12:59:07;101466.81;;;12.36;41.64
43420;BME280;29017;51.514;-0.178;2023-04-25T13:01:35;101465.22;;;12.25;42.40
43420;BME280;29017;51.514;-0.178;2023-04-25T13:04:11;101456.25;;;12.36;42.46
43420;BME280;29017;51.514;-0.178;2023-04-25T13:06:39;101454.31;;;12.38;42.95
43420;BME280;29017;51.514;-0.178;2023-04-25T13:09:06;101462.75;;;12.41;42.87
43420;BME280;29017;51.514;-0.178;2023-04-25T13:11:34;101465.53;;;12.40;41.86
43420;BME280;29017;51.514;-0.178;2023-04-25T13:14:02;101470.44;;;12.35;41.54